sensor_id;sensor_type;location;lat;lon;timestamp;P1;durP1;ratioP1;P2;durP2;ratioP2
65558;SDS011;52203;51.998;5.140;2023-07-29T00:01:35;4.93;;;2.10;;
65558;SDS011;52203;51.998;5.140;2023-07-29T00:04:01;4.80;;;2.40;;
65558;SDS011;52203;51.998;5.140;2023-07-29T00:06:27;4.90;;;2.22;;
65558;SDS011;52203;51.998;5.140;2023-07-29T00:08:53;6.10;;;2.33;;
65558;SDS011;52203;51.998;5.140;2023-07-29T00:11:18;3.67;;;1.90;;
65558;SDS011;52203;51.998;5.140;2023-07-29T00:13:44;4.30;;;1.92;;
65558;SDS011;52203;51.998;5.140;2023-07-29T00:16:10;5.88;;;2.17;;
65558;SDS011;52203;51.998;5.140;2023-07-29T00:18:35;5.00;;;1.90;;
65558;SDS011;52203;51.998;5.140;2023-07-29T00:21:04;6.75;;;2.53;;
65558;SDS011;52203;51.998;5.140;2023-07-29T00:23:30;4.47;;;2.15;;
65558;SDS011;52203;51.998;5.140;2023-07-29T00:25:58;4.88;;;2.33;;
65558;SDS011;52203;51.998;5.140;2023-07-29T00:28:24;5.75;;;2.30;;
65558;SDS011;52203;51.998;5.140;2023-07-29T00:30:49;6.35;;;2.58;;
65558;SDS011;52203;51.998;5.140;2023-07-29T00:33:16;4.93;;;2.72;;
65558;SDS011;52203;51.998;5.140;2023-07-29T00:35:42;6.07;;;2.90;;
65558;SDS011;52203;51.998;5.140;2023-07-29T00:38:08;6.72;;;2.85;;
65558;SDS011;52203;51.998;5.140;2023-07-29T00:40:35;6.50;;;3.40;;
65558;SDS011;52203;51.998;5.140;2023-07-29T00:43:02;5.03;;;2.83;;
65558;SDS011;52203;51.998;5.140;2023-07-29T00:45:29;7.10;;;2.75;;
65558;SDS011;52203;51.998;5.140;2023-07-29T00:47:55;6.57;;;2.85;;
65558;SDS011;52203;51.998;5.140;2023-07-29T00:50:21;8.50;;;3.17;;
65558;SDS011;52203;51.998;5.140;2023-07-29T00:52:47;6.70;;;3.15;;
65558;SDS011;52203;51.998;5.140;2023-07-29T00:55:14;6.45;;;3.13;;
65558;SDS011;52203;51.998;5.140;2023-07-29T00:57:39;7.78;;;3.42;;
65558;SDS011;52203;51.998;5.140;2023-07-29T01:00:07;6.78;;;3.35;;
65558;SDS011;52203;51.998;5.140;2023-07-29T01:02:34;6.65;;;3.30;;
65558;SDS011;52203;51.998;5.140;2023-07-29T01:05:03;7.60;;;3.80;;
65558;SDS011;52203;51.998;5.140;2023-07-29T01:13:13;9.15;;;3.60;;
65558;SDS011;52203;51.998;5.140;2023-07-29T01:15:55;8.23;;;3.67;;
65558;SDS011;52203;51.998;5.140;2023-07-29T01:18:26;9.43;;;4.22;;
65558;SDS011;52203;51.998;5.140;2023-07-29T01:21:02;7.82;;;3.75;;
65558;SDS011;52203;51.998;5.140;2023-07-29T01:23:30;7.25;;;3.83;;
65558;SDS011;52203;51.998;5.140;2023-07-29T01:25:57;7.63;;;3.60;;
65558;SDS011;52203;51.998;5.140;2023-07-29T01:28:23;8.48;;;4.03;;
65558;SDS011;52203;51.998;5.140;2023-07-29T01:30:49;7.18;;;3.83;;
65558;SDS011;52203;51.998;5.140;2023-07-29T01:33:26;6.87;;;3.53;;
65558;SDS011;52203;51.998;5.140;2023-07-29T01:36:00;8.82;;;3.78;;
65558;SDS011;52203;51.998;5.140;2023-07-29T01:38:29;9.65;;;3.90;;
65558;SDS011;52203;51.998;5.140;2023-07-29T01:40:59;6.88;;;3.70;;
65558;SDS011;52203;51.998;5.140;2023-07-29T01:43:31;8.32;;;3.58;;
65558;SDS011;52203;51.998;5.140;2023-07-29T01:45:57;8.50;;;3.88;;
65558;SDS011;52203;51.998;5.140;2023-07-29T01:48:23;7.22;;;3.75;;
65558;SDS011;52203;51.998;5.140;2023-07-29T01:50:49;8.60;;;3.65;;
65558;SDS011;52203;51.998;5.140;2023-07-29T01:53:15;8.98;;;3.80;;
65558;SDS011;52203;51.998;5.140;2023-07-29T01:55:42;8.98;;;3.63;;
65558;SDS011;52203;51.998;5.140;2023-07-29T01:58:09;8.93;;;4.10;;
65558;SDS011;52203;51.998;5.140;2023-07-29T02:00:35;9.25;;;3.95;;
65558;SDS011;52203;51.998;5.140;2023-07-29T02:03:00;7.45;;;3.78;;
65558;SDS011;52203;51.998;5.140;2023-07-29T02:05:26;7.70;;;3.80;;
65558;SDS011;52203;51.998;5.140;2023-07-29T02:07:52;6.30;;;3.30;;
65558;SDS011;52203;51.998;5.140;2023-07-29T02:10:20;7.85;;;3.47;;
65558;SDS011;52203;51.998;5.140;2023-07-29T02:12:46;7.90;;;3.72;;
65558;SDS011;52203;51.998;5.140;2023-07-29T02:15:11;7.15;;;3.80;;
65558;SDS011;52203;51.998;5.140;2023-07-29T02:17:37;6.45;;;3.40;;
65558;SDS011;52203;51.998;5.140;2023-07-29T02:20:02;7.05;;;3.17;;
65558;SDS011;52203;51.998;5.140;2023-07-29T02:22:29;8.02;;;3.90;;
65558;SDS011;52203;51.998;5.140;2023-07-29T02:24:55;8.10;;;3.40;;
65558;SDS011;52203;51.998;5.140;2023-07-29T02:27:20;6.93;;;3.55;;
65558;SDS011;52203;51.998;5.140;2023-07-29T02:29:46;9.48;;;3.08;;
65558;SDS011;52203;51.998;5.140;2023-07-29T02:32:11;7.38;;;3.40;;
65558;SDS011;52203;51.998;5.140;2023-07-29T02:34:37;5.90;;;2.78;;
65558;SDS011;52203;51.998;5.140;2023-07-29T02:37:03;4.82;;;3.00;;
65558;SDS011;52203;51.998;5.140;2023-07-29T02:39:28;9.35;;;2.45;;
65558;SDS011;52203;51.998;5.140;2023-07-29T02:41:54;6.63;;;3.17;;
65558;SDS011;52203;51.998;5.140;2023-07-29T02:44:28;5.40;;;2.55;;
65558;SDS011;52203;51.998;5.140;2023-07-29T02:46:56;5.90;;;2.78;;
65558;SDS011;52203;51.998;5.140;2023-07-29T02:49:22;7.15;;;3.17;;
65558;SDS011;52203;51.998;5.140;2023-07-29T02:51:48;7.40;;;3.00;;
65558;SDS011;52203;51.998;5.140;2023-07-29T02:54:14;4.95;;;2.58;;
65558;SDS011;52203;51.998;5.140;2023-07-29T02:56:40;6.78;;;2.88;;
65558;SDS011;52203;51.998;5.140;2023-07-29T02:59:05;6.40;;;2.70;;
65558;SDS011;52203;51.998;5.140;2023-07-29T03:01:31;5.22;;;2.45;;
65558;SDS011;52203;51.998;5.140;2023-07-29T03:03:57;7.18;;;2.80;;
65558;SDS011;52203;51.998;5.140;2023-07-29T03:06:23;4.63;;;2.33;;
65558;SDS011;52203;51.998;5.140;2023-07-29T03:08:49;5.60;;;2.58;;
65558;SDS011;52203;51.998;5.140;2023-07-29T03:11:15;5.28;;;2.40;;
65558;SDS011;52203;51.998;5.140;2023-07-29T03:13:42;5.13;;;2.15;;
65558;SDS011;52203;51.998;5.140;2023-07-29T03:16:09;4.45;;;2.33;;
65558;SDS011;52203;51.998;5.140;2023-07-29T03:18:40;6.32;;;2.10;;
65558;SDS011;52203;51.998;5.140;2023-07-29T03:21:06;4.43;;;2.30;;
65558;SDS011;52203;51.998;5.140;2023-07-29T03:23:32;6.13;;;2.60;;
65558;SDS011;52203;51.998;5.140;2023-07-29T03:25:59;5.47;;;2.17;;
65558;SDS011;52203;51.998;5.140;2023-07-29T03:28:29;6.47;;;2.05;;
65558;SDS011;52203;51.998;5.140;2023-07-29T03:30:58;5.20;;;2.40;;
65558;SDS011;52203;51.998;5.140;2023-07-29T03:33:24;5.22;;;3.10;;
65558;SDS011;52203;51.998;5.140;2023-07-29T03:35:51;4.75;;;2.08;;
65558;SDS011;52203;51.998;5.140;2023-07-29T03:38:17;3.95;;;2.08;;
65558;SDS011;52203;51.998;5.140;2023-07-29T03:40:43;4.80;;;2.22;;
65558;SDS011;52203;51.998;5.140;2023-07-29T03:43:09;6.45;;;2.03;;
65558;SDS011;52203;51.998;5.140;2023-07-29T03:45:38;5.05;;;2.30;;
65558;SDS011;52203;51.998;5.140;2023-07-29T03:48:07;5.25;;;2.30;;
65558;SDS011;52203;51.998;5.140;2023-07-29T03:50:38;6.80;;;1.95;;
65558;SDS011;52203;51.998;5.140;2023-07-29T03:53:04;3.67;;;1.77;;
65558;SDS011;52203;51.998;5.140;2023-07-29T03:55:30;4.30;;;1.60;;
65558;SDS011;52203;51.998;5.140;2023-07-29T03:57:57;3.55;;;1.90;;
65558;SDS011;52203;51.998;5.140;2023-07-29T04:00:23;3.70;;;1.92;;
65558;SDS011;52203;51.998;5.140;2023-07-29T04:02:49;4.60;;;2.10;;
65558;SDS011;52203;51.998;5.140;2023-07-29T04:05:15;4.72;;;2.10;;
65558;SDS011;52203;51.998;5.140;2023-07-29T04:07:41;4.65;;;2.10;;
65558;SDS011;52203;51.998;5.140;2023-07-29T04:10:07;7.03;;;2.00;;
65558;SDS011;52203;51.998;5.140;2023-07-29T04:12:33;3.70;;;2.17;;
65558;SDS011;52203;51.998;5.140;2023-07-29T04:14:58;3.90;;;1.85;;
65558;SDS011;52203;51.998;5.140;2023-07-29T04:17:24;6.18;;;2.30;;
65558;SDS011;52203;51.998;5.140;2023-07-29T04:19:50;4.57;;;2.00;;
65558;SDS011;52203;51.998;5.140;2023-07-29T04:22:15;5.95;;;2.08;;
65558;SDS011;52203;51.998;5.140;2023-07-29T04:24:41;4.85;;;1.98;;
65558;SDS011;52203;51.998;5.140;2023-07-29T04:27:07;5.25;;;1.80;;
65558;SDS011;52203;51.998;5.140;2023-07-29T04:29:33;4.82;;;1.77;;
65558;SDS011;52203;51.998;5.140;2023-07-29T04:32:00;4.63;;;2.03;;
65558;SDS011;52203;51.998;5.140;2023-07-29T04:34:27;4.80;;;2.28;;
65558;SDS011;52203;51.998;5.140;2023-07-29T04:36:52;5.25;;;2.00;;
65558;SDS011;52203;51.998;5.140;2023-07-29T04:39:18;4.13;;;2.15;;
65558;SDS011;52203;51.998;5.140;2023-07-29T04:41:43;4.22;;;2.15;;
65558;SDS011;52203;51.998;5.140;2023-07-29T04:44:09;5.05;;;2.10;;
65558;SDS011;52203;51.998;5.140;2023-07-29T04:46:35;5.22;;;2.13;;
65558;SDS011;52203;51.998;5.140;2023-07-29T04:49:01;6.60;;;2.33;;
65558;SDS011;52203;51.998;5.140;2023-07-29T04:51:27;5.13;;;2.45;;
65558;SDS011;52203;51.998;5.140;2023-07-29T04:53:53;5.50;;;2.45;;
65558;SDS011;52203;51.998;5.140;2023-07-29T04:56:19;5.45;;;2.25;;
65558;SDS011;52203;51.998;5.140;2023-07-29T04:58:44;6.68;;;2.70;;
65558;SDS011;52203;51.998;5.140;2023-07-29T05:01:10;4.18;;;2.28;;
65558;SDS011;52203;51.998;5.140;2023-07-29T05:03:36;5.07;;;2.47;;
65558;SDS011;52203;51.998;5.140;2023-07-29T05:06:02;6.45;;;3.22;;
65558;SDS011;52203;51.998;5.140;2023-07-29T05:08:28;5.20;;;2.40;;
65558;SDS011;52203;51.998;5.140;2023-07-29T05:10:53;6.22;;;2.70;;
65558;SDS011;52203;51.998;5.140;2023-07-29T05:13:19;6.20;;;2.90;;
65558;SDS011;52203;51.998;5.140;2023-07-29T05:15:49;6.43;;;2.72;;
65558;SDS011;52203;51.998;5.140;2023-07-29T05:18:15;7.30;;;2.80;;
65558;SDS011;52203;51.998;5.140;2023-07-29T05:20:41;8.15;;;4.00;;
65558;SDS011;52203;51.998;5.140;2023-07-29T05:23:07;8.20;;;3.10;;
65558;SDS011;52203;51.998;5.140;2023-07-29T05:25:33;6.45;;;2.92;;
65558;SDS011;52203;51.998;5.140;2023-07-29T05:28:00;5.82;;;3.17;;
65558;SDS011;52203;51.998;5.140;2023-07-29T05:30:28;7.85;;;3.25;;
65558;SDS011;52203;51.998;5.140;2023-07-29T05:33:00;6.88;;;2.85;;
65558;SDS011;52203;51.998;5.140;2023-07-29T05:35:25;7.72;;;3.13;;
65558;SDS011;52203;51.998;5.140;2023-07-29T05:37:51;7.43;;;3.50;;
65558;SDS011;52203;51.998;5.140;2023-07-29T05:40:16;11.18;;;4.00;;
65558;SDS011;52203;51.998;5.140;2023-07-29T05:42:42;7.90;;;3.33;;
65558;SDS011;52203;51.998;5.140;2023-07-29T05:45:10;8.13;;;3.42;;
65558;SDS011;52203;51.998;5.140;2023-07-29T05:47:36;7.25;;;3.25;;
65558;SDS011;52203;51.998;5.140;2023-07-29T05:50:02;7.95;;;3.65;;
65558;SDS011;52203;51.998;5.140;2023-07-29T05:52:30;9.95;;;3.70;;
65558;SDS011;52203;51.998;5.140;2023-07-29T05:54:55;6.30;;;3.10;;
65558;SDS011;52203;51.998;5.140;2023-07-29T05:57:24;8.70;;;3.72;;
65558;SDS011;52203;51.998;5.140;2023-07-29T05:59:50;6.60;;;3.25;;
65558;SDS011;52203;51.998;5.140;2023-07-29T06:02:15;7.95;;;3.08;;
65558;SDS011;52203;51.998;5.140;2023-07-29T06:04:41;8.30;;;3.72;;
65558;SDS011;52203;51.998;5.140;2023-07-29T06:07:07;8.25;;;3.75;;
65558;SDS011;52203;51.998;5.140;2023-07-29T06:09:32;8.88;;;3.47;;
65558;SDS011;52203;51.998;5.140;2023-07-29T06:11:58;6.90;;;3.63;;
65558;SDS011;52203;51.998;5.140;2023-07-29T06:14:23;8.93;;;3.85;;
65558;SDS011;52203;51.998;5.140;2023-07-29T06:16:49;8.20;;;3.53;;
65558;SDS011;52203;51.998;5.140;2023-07-29T06:19:14;7.38;;;3.53;;
65558;SDS011;52203;51.998;5.140;2023-07-29T06:21:40;9.77;;;3.80;;
65558;SDS011;52203;51.998;5.140;2023-07-29T06:24:06;7.05;;;4.00;;
65558;SDS011;52203;51.998;5.140;2023-07-29T06:26:31;9.63;;;4.15;;
65558;SDS011;52203;51.998;5.140;2023-07-29T06:28:57;6.80;;;3.45;;
65558;SDS011;52203;51.998;5.140;2023-07-29T06:31:22;7.53;;;3.60;;
65558;SDS011;52203;51.998;5.140;2023-07-29T06:33:48;9.30;;;3.88;;
65558;SDS011;52203;51.998;5.140;2023-07-29T06:36:13;7.35;;;4.05;;
65558;SDS011;52203;51.998;5.140;2023-07-29T06:38:39;7.00;;;4.07;;
65558;SDS011;52203;51.998;5.140;2023-07-29T06:41:05;8.65;;;3.95;;
65558;SDS011;52203;51.998;5.140;2023-07-29T06:43:31;8.07;;;4.22;;
65558;SDS011;52203;51.998;5.140;2023-07-29T06:45:57;9.48;;;3.30;;
65558;SDS011;52203;51.998;5.140;2023-07-29T06:48:22;6.53;;;3.75;;
65558;SDS011;52203;51.998;5.140;2023-07-29T06:50:48;7.35;;;3.67;;
65558;SDS011;52203;51.998;5.140;2023-07-29T06:53:15;8.80;;;3.67;;
65558;SDS011;52203;51.998;5.140;2023-07-29T06:55:41;6.47;;;3.83;;
65558;SDS011;52203;51.998;5.140;2023-07-29T06:58:07;7.15;;;4.18;;
65558;SDS011;52203;51.998;5.140;2023-07-29T07:00:33;7.57;;;3.33;;
65558;SDS011;52203;51.998;5.140;2023-07-29T07:02:58;8.25;;;4.00;;
65558;SDS011;52203;51.998;5.140;2023-07-29T07:05:24;9.18;;;3.60;;
65558;SDS011;52203;51.998;5.140;2023-07-29T07:07:52;7.13;;;3.53;;
65558;SDS011;52203;51.998;5.140;2023-07-29T07:10:18;10.00;;;4.32;;
65558;SDS011;52203;51.998;5.140;2023-07-29T07:12:44;8.75;;;4.28;;
65558;SDS011;52203;51.998;5.140;2023-07-29T07:15:10;7.03;;;3.38;;
65558;SDS011;52203;51.998;5.140;2023-07-29T07:17:35;5.40;;;3.50;;
65558;SDS011;52203;51.998;5.140;2023-07-29T07:20:01;8.10;;;3.95;;
65558;SDS011;52203;51.998;5.140;2023-07-29T07:22:27;6.90;;;3.30;;
65558;SDS011;52203;51.998;5.140;2023-07-29T07:24:52;6.35;;;4.00;;
65558;SDS011;52203;51.998;5.140;2023-07-29T07:27:18;8.02;;;3.60;;
65558;SDS011;52203;51.998;5.140;2023-07-29T07:29:43;6.82;;;3.15;;
65558;SDS011;52203;51.998;5.140;2023-07-29T07:32:09;6.13;;;3.55;;
65558;SDS011;52203;51.998;5.140;2023-07-29T07:34:34;6.90;;;3.60;;
65558;SDS011;52203;51.998;5.140;2023-07-29T07:37:00;6.25;;;3.55;;
65558;SDS011;52203;51.998;5.140;2023-07-29T07:39:26;6.30;;;3.80;;
65558;SDS011;52203;51.998;5.140;2023-07-29T07:41:51;6.93;;;3.67;;
65558;SDS011;52203;51.998;5.140;2023-07-29T07:44:18;4.85;;;3.40;;
65558;SDS011;52203;51.998;5.140;2023-07-29T07:46:44;5.35;;;3.53;;
65558;SDS011;52203;51.998;5.140;2023-07-29T07:49:10;5.90;;;3.28;;
65558;SDS011;52203;51.998;5.140;2023-07-29T07:51:37;5.13;;;3.17;;
65558;SDS011;52203;51.998;5.140;2023-07-29T07:54:03;7.10;;;3.30;;
65558;SDS011;52203;51.998;5.140;2023-07-29T07:56:28;4.78;;;2.75;;
65558;SDS011;52203;51.998;5.140;2023-07-29T07:58:54;5.03;;;2.97;;
65558;SDS011;52203;51.998;5.140;2023-07-29T08:01:19;3.95;;;3.00;;
65558;SDS011;52203;51.998;5.140;2023-07-29T08:03:45;6.45;;;3.13;;
65558;SDS011;52203;51.998;5.140;2023-07-29T08:06:10;6.43;;;3.25;;
65558;SDS011;52203;51.998;5.140;2023-07-29T08:08:36;4.30;;;3.00;;
65558;SDS011;52203;51.998;5.140;2023-07-29T08:11:01;4.88;;;3.10;;
65558;SDS011;52203;51.998;5.140;2023-07-29T08:13:27;4.63;;;2.97;;
65558;SDS011;52203;51.998;5.140;2023-07-29T08:15:53;4.60;;;2.80;;
65558;SDS011;52203;51.998;5.140;2023-07-29T08:18:18;4.32;;;3.03;;
65558;SDS011;52203;51.998;5.140;2023-07-29T08:20:54;7.95;;;2.80;;
65558;SDS011;52203;51.998;5.140;2023-07-29T08:23:20;5.70;;;3.00;;
65558;SDS011;52203;51.998;5.140;2023-07-29T08:26:00;5.15;;;3.03;;
65558;SDS011;52203;51.998;5.140;2023-07-29T08:28:34;4.50;;;3.00;;
65558;SDS011;52203;51.998;5.140;2023-07-29T08:31:01;6.00;;;3.30;;
65558;SDS011;52203;51.998;5.140;2023-07-29T08:33:27;6.85;;;3.70;;
65558;SDS011;52203;51.998;5.140;2023-07-29T08:35:53;6.28;;;4.40;;
65558;SDS011;52203;51.998;5.140;2023-07-29T08:38:19;7.70;;;4.40;;
65558;SDS011;52203;51.998;5.140;2023-07-29T08:41:09;5.88;;;4.15;;
65558;SDS011;52203;51.998;5.140;2023-07-29T08:43:38;7.43;;;3.83;;
65558;SDS011;52203;51.998;5.140;2023-07-29T08:46:04;8.48;;;3.83;;
65558;SDS011;52203;51.998;5.140;2023-07-29T08:48:40;6.95;;;3.38;;
65558;SDS011;52203;51.998;5.140;2023-07-29T08:51:08;6.07;;;3.47;;
65558;SDS011;52203;51.998;5.140;2023-07-29T08:53:37;6.35;;;3.65;;
65558;SDS011;52203;51.998;5.140;2023-07-29T08:56:03;5.63;;;3.50;;
65558;SDS011;52203;51.998;5.140;2023-07-29T08:58:30;6.45;;;3.50;;
65558;SDS011;52203;51.998;5.140;2023-07-29T09:00:56;5.80;;;3.47;;
65558;SDS011;52203;51.998;5.140;2023-07-29T09:03:22;5.18;;;3.33;;
65558;SDS011;52203;51.998;5.140;2023-07-29T09:05:47;5.55;;;3.35;;
65558;SDS011;52203;51.998;5.140;2023-07-29T09:08:13;5.38;;;3.30;;
65558;SDS011;52203;51.998;5.140;2023-07-29T09:10:39;6.15;;;3.60;;
65558;SDS011;52203;51.998;5.140;2023-07-29T09:13:05;4.70;;;3.58;;
65558;SDS011;52203;51.998;5.140;2023-07-29T09:15:31;5.32;;;3.10;;
65558;SDS011;52203;51.998;5.140;2023-07-29T09:17:58;4.78;;;3.45;;
65558;SDS011;52203;51.998;5.140;2023-07-29T09:20:25;4.35;;;3.22;;
65558;SDS011;52203;51.998;5.140;2023-07-29T09:23:01;5.95;;;3.83;;
65558;SDS011;52203;51.998;5.140;2023-07-29T09:25:29;4.50;;;3.10;;
65558;SDS011;52203;51.998;5.140;2023-07-29T09:27:58;4.32;;;3.20;;
65558;SDS011;52203;51.998;5.140;2023-07-29T09:30:25;3.78;;;2.85;;
65558;SDS011;52203;51.998;5.140;2023-07-29T09:32:55;3.83;;;2.88;;
65558;SDS011;52203;51.998;5.140;2023-07-29T09:35:22;6.03;;;3.53;;
65558;SDS011;52203;51.998;5.140;2023-07-29T09:37:48;4.90;;;2.65;;
65558;SDS011;52203;51.998;5.140;2023-07-29T09:40:14;4.28;;;2.40;;
65558;SDS011;52203;51.998;5.140;2023-07-29T09:42:47;4.15;;;2.30;;
65558;SDS011;52203;51.998;5.140;2023-07-29T09:45:18;5.85;;;2.80;;
65558;SDS011;52203;51.998;5.140;2023-07-29T09:47:47;2.80;;;2.17;;
65558;SDS011;52203;51.998;5.140;2023-07-29T09:50:13;3.50;;;2.22;;
65558;SDS011;52203;51.998;5.140;2023-07-29T09:52:39;5.80;;;2.30;;
65558;SDS011;52203;51.998;5.140;2023-07-29T09:55:06;4.07;;;2.20;;
65558;SDS011;52203;51.998;5.140;2023-07-29T09:57:32;3.53;;;2.10;;
65558;SDS011;52203;51.998;5.140;2023-07-29T09:59:59;3.33;;;2.03;;
65558;SDS011;52203;51.998;5.140;2023-07-29T10:02:24;3.20;;;1.92;;
65558;SDS011;52203;51.998;5.140;2023-07-29T10:04:53;3.35;;;2.00;;
65558;SDS011;52203;51.998;5.140;2023-07-29T10:07:20;5.05;;;2.05;;
65558;SDS011;52203;51.998;5.140;2023-07-29T10:09:46;5.00;;;1.80;;
65558;SDS011;52203;51.998;5.140;2023-07-29T10:12:13;3.55;;;1.70;;
65558;SDS011;52203;51.998;5.140;2023-07-29T10:14:38;2.38;;;1.27;;
65558;SDS011;52203;51.998;5.140;2023-07-29T10:17:04;2.58;;;1.45;;
65558;SDS011;52203;51.998;5.140;2023-07-29T10:19:30;3.92;;;1.50;;
65558;SDS011;52203;51.998;5.140;2023-07-29T10:21:56;4.45;;;1.52;;
65558;SDS011;52203;51.998;5.140;2023-07-29T10:24:29;2.80;;;1.50;;
65558;SDS011;52203;51.998;5.140;2023-07-29T10:26:57;2.88;;;1.60;;
65558;SDS011;52203;51.998;5.140;2023-07-29T10:29:24;5.75;;;1.80;;
65558;SDS011;52203;51.998;5.140;2023-07-29T10:31:55;5.75;;;2.05;;
65558;SDS011;52203;51.998;5.140;2023-07-29T10:34:23;5.30;;;2.22;;
65558;SDS011;52203;51.998;5.140;2023-07-29T10:36:50;6.47;;;2.33;;
65558;SDS011;52203;51.998;5.140;2023-07-29T10:39:16;5.50;;;2.70;;
65558;SDS011;52203;51.998;5.140;2023-07-29T10:41:55;4.10;;;2.50;;
65558;SDS011;52203;51.998;5.140;2023-07-29T10:47:13;4.22;;;2.67;;
65558;SDS011;52203;51.998;5.140;2023-07-29T10:49:46;4.38;;;2.83;;
65558;SDS011;52203;51.998;5.140;2023-07-29T10:52:14;5.32;;;2.80;;
65558;SDS011;52203;51.998;5.140;2023-07-29T10:54:47;6.75;;;2.65;;
65558;SDS011;52203;51.998;5.140;2023-07-29T10:57:13;4.95;;;2.70;;
65558;SDS011;52203;51.998;5.140;2023-07-29T10:59:40;5.35;;;3.15;;
65558;SDS011;52203;51.998;5.140;2023-07-29T11:02:17;4.43;;;2.60;;
65558;SDS011;52203;51.998;5.140;2023-07-29T11:04:50;6.60;;;2.70;;
65558;SDS011;52203;51.998;5.140;2023-07-29T11:17:33;5.38;;;3.05;;
65558;SDS011;52203;51.998;5.140;2023-07-29T11:20:00;5.68;;;2.92;;
65558;SDS011;52203;51.998;5.140;2023-07-29T11:22:29;5.63;;;2.80;;
65558;SDS011;52203;51.998;5.140;2023-07-29T11:24:55;5.70;;;3.13;;
65558;SDS011;52203;51.998;5.140;2023-07-29T11:27:21;6.47;;;3.00;;
65558;SDS011;52203;51.998;5.140;2023-07-29T11:29:47;4.20;;;2.50;;
65558;SDS011;52203;51.998;5.140;2023-07-29T11:32:13;4.97;;;3.05;;
65558;SDS011;52203;51.998;5.140;2023-07-29T11:34:40;4.68;;;2.40;;
65558;SDS011;52203;51.998;5.140;2023-07-29T11:37:06;4.78;;;2.65;;
65558;SDS011;52203;51.998;5.140;2023-07-29T11:39:37;5.55;;;2.85;;
65558;SDS011;52203;51.998;5.140;2023-07-29T11:42:05;3.78;;;2.50;;
65558;SDS011;52203;51.998;5.140;2023-07-29T11:44:31;4.68;;;2.53;;
65558;SDS011;52203;51.998;5.140;2023-07-29T11:46:56;4.63;;;2.40;;
65558;SDS011;52203;51.998;5.140;2023-07-29T11:49:21;6.80;;;2.53;;
65558;SDS011;52203;51.998;5.140;2023-07-29T11:51:47;4.00;;;2.70;;
65558;SDS011;52203;51.998;5.140;2023-07-29T11:54:13;4.93;;;2.55;;
65558;SDS011;52203;51.998;5.140;2023-07-29T11:56:38;5.72;;;2.53;;
65558;SDS011;52203;51.998;5.140;2023-07-29T11:59:04;5.30;;;2.72;;
65558;SDS011;52203;51.998;5.140;2023-07-29T12:01:30;4.47;;;2.28;;
65558;SDS011;52203;51.998;5.140;2023-07-29T12:03:56;5.20;;;2.67;;
65558;SDS011;52203;51.998;5.140;2023-07-29T12:06:22;3.88;;;2.05;;
65558;SDS011;52203;51.998;5.140;2023-07-29T12:08:50;5.15;;;2.58;;
65558;SDS011;52203;51.998;5.140;2023-07-29T12:11:16;3.92;;;2.40;;
65558;SDS011;52203;51.998;5.140;2023-07-29T12:13:42;4.72;;;2.35;;
65558;SDS011;52203;51.998;5.140;2023-07-29T12:16:08;3.97;;;2.58;;
65558;SDS011;52203;51.998;5.140;2023-07-29T12:18:34;3.08;;;2.17;;
65558;SDS011;52203;51.998;5.140;2023-07-29T12:21:01;4.28;;;2.30;;
65558;SDS011;52203;51.998;5.140;2023-07-29T12:23:27;3.65;;;2.10;;
65558;SDS011;52203;51.998;5.140;2023-07-29T12:25:58;3.55;;;2.10;;
65558;SDS011;52203;51.998;5.140;2023-07-29T12:28:24;3.35;;;1.58;;
65558;SDS011;52203;51.998;5.140;2023-07-29T12:30:54;2.33;;;1.55;;
65558;SDS011;52203;51.998;5.140;2023-07-29T12:33:32;3.10;;;1.70;;
65558;SDS011;52203;51.998;5.140;2023-07-29T12:36:07;2.83;;;1.50;;
65558;SDS011;52203;51.998;5.140;2023-07-29T12:38:33;3.13;;;1.80;;
65558;SDS011;52203;51.998;5.140;2023-07-29T12:40:58;3.15;;;1.60;;
65558;SDS011;52203;51.998;5.140;2023-07-29T12:43:24;3.35;;;1.70;;
65558;SDS011;52203;51.998;5.140;2023-07-29T12:45:50;2.65;;;1.80;;
65558;SDS011;52203;51.998;5.140;2023-07-29T12:48:16;4.82;;;1.70;;
65558;SDS011;52203;51.998;5.140;2023-07-29T12:50:42;3.17;;;1.67;;
65558;SDS011;52203;51.998;5.140;2023-07-29T12:53:08;3.95;;;1.67;;
65558;SDS011;52203;51.998;5.140;2023-07-29T12:55:36;2.80;;;1.45;;
65558;SDS011;52203;51.998;5.140;2023-07-29T12:58:02;3.10;;;1.70;;
65558;SDS011;52203;51.998;5.140;2023-07-29T13:00:28;3.00;;;1.67;;
65558;SDS011;52203;51.998;5.140;2023-07-29T13:02:54;3.53;;;1.73;;
65558;SDS011;52203;51.998;5.140;2023-07-29T13:05:19;3.33;;;1.80;;
65558;SDS011;52203;51.998;5.140;2023-07-29T13:07:45;2.40;;;1.60;;
65558;SDS011;52203;51.998;5.140;2023-07-29T13:10:11;3.25;;;1.73;;
65558;SDS011;52203;51.998;5.140;2023-07-29T13:12:37;3.55;;;1.63;;
65558;SDS011;52203;51.998;5.140;2023-07-29T13:15:04;3.80;;;1.83;;
65558;SDS011;52203;51.998;5.140;2023-07-29T13:17:30;2.75;;;1.80;;
65558;SDS011;52203;51.998;5.140;2023-07-29T13:19:56;3.95;;;1.70;;
65558;SDS011;52203;51.998;5.140;2023-07-29T13:22:21;3.45;;;1.88;;
65558;SDS011;52203;51.998;5.140;2023-07-29T13:24:47;4.20;;;2.15;;
65558;SDS011;52203;51.998;5.140;2023-07-29T13:27:12;2.85;;;1.90;;
65558;SDS011;52203;51.998;5.140;2023-07-29T13:29:39;3.60;;;2.10;;
65558;SDS011;52203;51.998;5.140;2023-07-29T13:32:05;4.47;;;1.90;;
65558;SDS011;52203;51.998;5.140;2023-07-29T13:34:31;3.65;;;1.90;;
65558;SDS011;52203;51.998;5.140;2023-07-29T13:36:56;3.17;;;1.92;;
65558;SDS011;52203;51.998;5.140;2023-07-29T13:39:22;2.78;;;1.95;;
65558;SDS011;52203;51.998;5.140;2023-07-29T13:41:47;3.70;;;2.22;;
65558;SDS011;52203;51.998;5.140;2023-07-29T13:44:13;3.33;;;2.00;;
65558;SDS011;52203;51.998;5.140;2023-07-29T13:46:38;3.67;;;2.05;;
65558;SDS011;52203;51.998;5.140;2023-07-29T13:49:04;5.70;;;2.25;;
65558;SDS011;52203;51.998;5.140;2023-07-29T13:51:29;3.40;;;2.20;;
65558;SDS011;52203;51.998;5.140;2023-07-29T13:53:55;3.95;;;1.95;;
65558;SDS011;52203;51.998;5.140;2023-07-29T13:56:21;2.40;;;1.70;;
65558;SDS011;52203;51.998;5.140;2023-07-29T13:58:47;2.90;;;1.75;;
65558;SDS011;52203;51.998;5.140;2023-07-29T14:01:12;2.92;;;1.85;;
65558;SDS011;52203;51.998;5.140;2023-07-29T14:03:38;3.15;;;2.03;;
65558;SDS011;52203;51.998;5.140;2023-07-29T14:06:03;5.43;;;1.90;;
65558;SDS011;52203;51.998;5.140;2023-07-29T14:08:29;3.38;;;1.65;;
65558;SDS011;52203;51.998;5.140;2023-07-29T14:10:54;2.92;;;1.60;;
65558;SDS011;52203;51.998;5.140;2023-07-29T14:13:20;2.65;;;1.58;;
65558;SDS011;52203;51.998;5.140;2023-07-29T14:15:45;2.95;;;1.65;;
65558;SDS011;52203;51.998;5.140;2023-07-29T14:18:11;3.13;;;1.85;;
65558;SDS011;52203;51.998;5.140;2023-07-29T14:20:36;2.80;;;1.70;;
65558;SDS011;52203;51.998;5.140;2023-07-29T14:23:02;2.75;;;1.38;;
65558;SDS011;52203;51.998;5.140;2023-07-29T14:25:27;2.90;;;1.30;;
65558;SDS011;52203;51.998;5.140;2023-07-29T14:27:53;3.38;;;1.30;;
65558;SDS011;52203;51.998;5.140;2023-07-29T14:30:18;2.67;;;1.33;;
65558;SDS011;52203;51.998;5.140;2023-07-29T14:32:43;4.03;;;1.58;;
65558;SDS011;52203;51.998;5.140;2023-07-29T14:35:09;4.05;;;1.50;;
65558;SDS011;52203;51.998;5.140;2023-07-29T14:37:35;4.85;;;2.25;;
65558;SDS011;52203;51.998;5.140;2023-07-29T14:40:00;4.40;;;1.33;;
65558;SDS011;52203;51.998;5.140;2023-07-29T14:42:27;3.83;;;1.67;;
65558;SDS011;52203;51.998;5.140;2023-07-29T14:44:53;2.30;;;1.20;;
65558;SDS011;52203;51.998;5.140;2023-07-29T14:47:19;2.15;;;1.17;;
65558;SDS011;52203;51.998;5.140;2023-07-29T14:49:45;2.90;;;1.23;;
65558;SDS011;52203;51.998;5.140;2023-07-29T14:52:10;2.55;;;1.20;;
65558;SDS011;52203;51.998;5.140;2023-07-29T14:54:36;1.92;;;1.10;;
65558;SDS011;52203;51.998;5.140;2023-07-29T14:57:02;2.97;;;1.17;;
65558;SDS011;52203;51.998;5.140;2023-07-29T14:59:27;2.67;;;1.27;;
65558;SDS011;52203;51.998;5.140;2023-07-29T15:01:53;2.70;;;1.08;;
65558;SDS011;52203;51.998;5.140;2023-07-29T15:04:18;5.75;;;1.48;;